Time;durP1;ratioP1;P1;durP2;ratioP2;P2;SDS_P1;SDS_P2;PMS_P1;PMS_P2;Temp;Humidity;BMP_temperature;BMP_pressure;BME280_temperature;BME280_humidity;BME280_pressure;Samples;Min_cycle;Max_cycle;Signal;HPM_P1;HPM_P2
2023/04/08 00:01:46;;;;;;;5.32;3.90;;;;;;;7.33;100.00;100735.63;4993912;28;20078;-92
2023/04/08 00:04:13;;;;;;;4.50;4.10;;;;;;;7.68;100.00;100789.09;4980576;28;20045;-94
2023/04/08 00:06:42;;;;;;;6.38;4.20;;;;;;;7.60;100.00;100777.91;4986378;28;20055;-93
2023/04/08 00:09:11;;;;;;;5.18;3.60;;;;;;;7.66;100.00;100785.63;4988411;28;20057;-92
2023/04/08 00:11:38;;;;;;;4.38;3.63;;;;;;;7.57;100.00;100777.97;5008707;28;20042;-91
2023/04/08 00:14:06;;;;;;;5.00;4.50;;;;;;;7.58;100.00;100788.47;5002271;28;20082;-92
2023/04/08 00:16:34;;;;;;;7.38;4.10;;;;;;;7.55;100.00;100793.00;5010323;28;20037;-91
2023/04/08 00:19:01;;;;;;;5.85;4.85;;;;;;;7.44;100.00;100779.22;5027188;28;20068;-92
2023/04/08 00:21:30;;;;;;;6.03;4.63;;;;;;;7.43;100.00;100788.03;5031922;28;20022;-91
2023/04/08 00:23:58;;;;;;;6.03;4.72;;;;;;;7.07;100.00;100737.25;5024426;28;20049;-93
2023/04/08 00:26:25;;;;;;;5.22;4.38;;;;;;;7.34;100.00;100787.41;5024776;28;20042;-92
2023/04/08 00:28:52;;;;;;;5.22;4.43;;;;;;;7.30;100.00;100798.06;5010188;28;20038;-93
2023/04/08 00:31:19;;;;;;;6.10;4.60;;;;;;;7.28;100.00;100794.59;5020439;28;20041;-92
2023/04/08 00:33:47;;;;;;;5.53;4.43;;;;;;;7.29;100.00;100799.81;5002749;28;20046;-92
2023/04/08 00:36:19;;;;;;;5.88;4.78;;;;;;;7.27;100.00;100798.13;5021363;28;20041;-92
2023/04/08 00:38:45;;;;;;;5.03;4.53;;;;;;;7.19;100.00;100803.63;5012102;28;20042;-93
2023/04/08 00:41:13;;;;;;;4.80;4.30;;;;;;;7.15;100.00;100796.69;5020931;28;20057;-93
2023/04/08 00:43:41;;;;;;;7.43;5.03;;;;;;;7.14;100.00;100805.50;5012283;28;20061;-93
2023/04/08 00:46:08;;;;;;;5.82;4.53;;;;;;;6.92;100.00;100778.03;5017079;28;20115;-91
2023/04/08 00:48:37;;;;;;;5.93;4.75;;;;;;;6.86;100.00;100762.38;5018515;28;20034;-93
2023/04/08 00:51:08;;;;;;;7.38;4.47;;;;;;;6.79;100.00;100745.00;5013332;28;20101;-92
2023/04/08 00:53:37;;;;;;;5.10;4.30;;;;;;;6.59;100.00;100716.59;5007342;28;20073;-93
2023/04/08 00:56:04;;;;;;;5.13;3.95;;;;;;;6.91;100.00;100778.94;5039330;28;20093;-91
2023/04/08 00:58:31;;;;;;;5.22;3.88;;;;;;;7.06;100.00;100804.00;5025309;28;20049;-90
2023/04/08 01:01:05;;;;;;;4.60;3.88;;;;;;;6.98;100.00;100812.94;5044634;28;20121;-91
2023/04/08 01:03:34;;;;;;;5.53;3.97;;;;;;;6.92;100.00;100809.63;5026139;28;20042;-92
2023/04/08 01:06:45;;;;;;;6.00;3.92;;;;;;;6.79;100.00;100806.41;5014461;28;20042;-91
2023/04/08 01:09:14;;;;;;;4.78;3.88;;;;;;;6.71;100.00;100796.97;5010392;28;20068;-92
2023/04/08 01:11:43;;;;;;;4.93;4.43;;;;;;;6.71;100.00;100804.88;5021664;28;20089;-91
2023/04/08 01:14:14;;;;;;;4.53;4.10;;;;;;;6.68;100.00;100809.31;5021968;28;20045;-90
2023/04/08 01:16:44;;;;;;;5.82;4.32;;;;;;;6.56;100.00;100790.34;4998617;28;20061;-89
2023/04/08 01:19:25;;;;;;;5.07;4.47;;;;;;;6.52;100.00;100797.44;5011041;28;20041;-90
2023/04/08 01:22:00;;;;;;;7.00;4.53;;;;;;;6.43;100.00;100786.25;5036296;28;20042;-91
2023/04/08 01:24:29;;;;;;;8.18;5.20;;;;;;;6.20;100.00;100757.88;5021868;28;20045;-92
2023/04/08 01:26:58;;;;;;;5.13;4.60;;;;;;;6.46;100.00;100812.47;5045078;28;20061;-89
2023/04/08 01:29:28;;;;;;;6.35;4.55;;;;;;;6.41;100.00;100807.34;5027739;28;20041;-92
2023/04/08 01:31:57;;;;;;;5.18;4.55;;;;;;;6.40;100.00;100813.50;5021794;28;20117;-92
2023/04/08 01:34:36;;;;;;;6.88;5.40;;;;;;;6.37;100.00;100813.56;5003664;28;20442;-93
2023/04/08 01:37:05;;;;;;;7.88;5.13;;;;;;;6.39;100.00;100817.03;5022777;28;20060;-92
2023/04/08 01:39:33;;;;;;;6.32;5.43;;;;;;;6.34;100.00;100809.25;5005273;28;20466;-93
2023/04/08 01:42:01;;;;;;;5.75;5.00;;;;;;;6.33;100.00;100811.91;5031762;28;20046;-93
2023/04/08 01:44:32;;;;;;;6.18;4.68;;;;;;;6.27;100.00;100812.06;5029885;28;20052;-92
2023/04/08 01:46:59;;;;;;;5.88;5.25;;;;;;;6.19;100.00;100809.59;5025712;28;20045;-93
2023/04/08 01:49:53;;;;;;;6.22;5.35;;;;;;;6.07;100.00;100801.97;5015853;28;20038;-92
2023/04/08 01:52:33;;;;;;;8.25;5.80;;;;;;;6.08;100.00;100808.09;5032587;28;20042;-92
2023/04/08 01:55:01;;;;;;;6.70;5.28;;;;;;;6.04;100.00;100798.53;5028712;28;20053;-93
2023/04/08 01:57:32;;;;;;;6.50;5.78;;;;;;;6.09;100.00;100807.22;5027227;28;20125;-92
2023/04/08 02:00:01;;;;;;;6.18;5.25;;;;;;;6.04;100.00;100804.66;5029576;28;20380;-92
2023/04/08 02:02:32;;;;;;;7.30;5.75;;;;;;;6.00;100.00;100810.88;5028656;28;20542;-92
2023/04/08 02:05:03;;;;;;;6.28;5.50;;;;;;;5.94;100.00;100808.41;5015522;28;20076;-91
2023/04/08 02:07:31;;;;;;;7.75;6.57;;;;;;;5.89;100.00;100808.50;5013580;28;20052;-92
2023/04/08 02:09:57;;;;;;;10.77;6.53;;;;;;;5.90;100.00;100817.25;5019516;28;20042;-92
2023/04/08 02:12:26;;;;;;;7.70;5.78;;;;;;;5.72;100.00;100786.94;5027619;28;20045;-92
2023/04/08 02:14:54;;;;;;;9.32;6.88;;;;;;;5.78;100.00;100814.84;5037365;28;20056;-91
2023/04/08 02:17:35;;;;;;;7.70;6.38;;;;;;;5.77;100.00;100824.50;5033571;28;20430;-90
2023/04/08 02:20:10;;;;;;;8.23;7.18;;;;;;;5.73;100.00;100825.44;5044088;28;20148;-90
2023/04/08 02:22:45;;;;;;;9.20;6.82;;;;;;;5.61;100.00;100808.19;5030187;28;20045;-90
2023/04/08 02:25:16;;;;;;;8.23;6.38;;;;;;;5.60;100.00;100809.06;5031176;28;20039;-91
2023/04/08 02:27:44;;;;;;;8.25;7.40;;;;;;;5.66;100.00;100823.00;4995499;28;20125;-91
2023/04/08 02:30:15;;;;;;;7.75;6.95;;;;;;;5.60;100.00;100806.44;5017718;28;20072;-91
2023/04/08 02:32:46;;;;;;;8.95;6.55;;;;;;;5.73;100.00;100830.69;5023245;28;20050;-91
2023/04/08 02:35:18;;;;;;;8.65;7.30;;;;;;;5.50;100.00;100804.03;5016658;28;20038;-92
2023/04/08 02:37:51;;;;;;;8.95;7.13;;;;;;;5.14;100.00;100748.72;5023865;28;20602;-91
2023/04/08 02:40:23;;;;;;;10.45;8.00;;;;;;;5.59;100.00;100830.13;5024544;28;20041;-92
2023/04/08 02:42:51;;;;;;;11.80;7.65;;;;;;;5.53;100.00;100832.84;5000295;28;20046;-91
2023/04/08 02:45:26;;;;;;;9.63;7.40;;;;;;;5.51;100.00;100830.25;5000367;28;20045;-92
2023/04/08 02:47:52;;;;;;;10.95;8.70;;;;;;;5.42;100.00;100840.06;5014161;28;20122;-92
2023/04/08 02:50:35;;;;;;;9.65;8.50;;;;;;;5.32;100.00;100841.16;5024486;28;20395;-93
2023/04/08 02:53:04;;;;;;;11.55;9.45;;;;;;;5.20;100.00;100831.72;5031559;28;20626;-92
2023/04/08 02:55:31;;;;;;;11.02;9.07;;;;;;;5.13;100.00;100830.97;5043377;28;20093;-91
2023/04/08 02:57:58;;;;;;;10.95;8.82;;;;;;;5.18;100.00;100842.28;5034948;28;20034;-91
2023/04/08 03:00:26;;;;;;;10.60;8.88;;;;;;;5.16;100.00;100838.81;5050413;28;20042;-91
2023/04/08 03:02:54;;;;;;;11.30;9.07;;;;;;;5.12;100.00;100831.00;5067164;28;20067;-90
2023/04/08 03:05:25;;;;;;;10.55;8.88;;;;;;;5.16;100.00;100843.19;5035345;28;20071;-92
2023/04/08 03:07:52;;;;;;;10.98;8.75;;;;;;;5.15;100.00;100842.31;5029939;28;20125;-92
2023/04/08 03:10:21;;;;;;;11.38;8.80;;;;;;;5.14;100.00;100843.22;5029690;28;20049;-92
2023/04/08 03:12:53;;;;;;;10.07;8.70;;;;;;;5.11;100.00;100845.88;5023147;28;20070;-91
2023/04/08 03:15:20;;;;;;;11.73;9.80;;;;;;;5.00;100.00;100825.97;5020289;28;20046;-92
2023/04/08 03:17:47;;;;;;;13.27;10.15;;;;;;;4.87;100.00;100820.06;5021669;28;20050;-91
2023/04/08 03:20:14;;;;;;;14.70;11.07;;;;;;;5.02;100.00;100843.44;5010373;28;20091;-91
2023/04/08 03:22:40;;;;;;;13.95;10.95;;;;;;;4.94;100.00;100838.28;5023641;28;20052;-92
2023/04/08 03:25:08;;;;;;;14.13;10.35;;;;;;;4.95;100.00;100839.16;5020961;28;20071;-92
2023/04/08 03:27:35;;;;;;;13.60;10.52;;;;;;;4.80;100.00;100810.56;5044095;28;20032;-91
2023/04/08 03:30:02;;;;;;;16.45;11.70;;;;;;;4.73;100.00;100806.28;5031384;28;20042;-91
2023/04/08 03:32:29;;;;;;;14.02;10.75;;;;;;;4.89;100.00;100839.25;5063924;28;20076;-90
2023/04/08 03:34:56;;;;;;;14.27;11.35;;;;;;;4.57;100.00;100790.81;5052373;28;20046;-90
2023/04/08 03:37:23;;;;;;;13.65;10.43;;;;;;;4.92;100.00;100855.81;5011315;28;20101;-92
2023/04/08 03:39:54;;;;;;;14.55;10.65;;;;;;;4.74;100.00;100821.16;5026727;28;20044;-91
2023/04/08 03:42:22;;;;;;;14.02;10.68;;;;;;;4.94;100.00;100858.44;5040303;28;20037;-92
2023/04/08 03:44:50;;;;;;;14.27;10.88;;;;;;;4.87;100.00;100849.81;5051996;28;20133;-91
2023/04/08 03:47:20;;;;;;;13.27;11.05;;;;;;;4.89;100.00;100855.00;5054273;28;20045;-92
2023/04/08 03:49:46;;;;;;;13.32;10.80;;;;;;;4.82;100.00;100846.38;5038229;28;20057;-91
2023/04/08 03:52:13;;;;;;;14.18;11.10;;;;;;;4.93;100.00;100861.94;5031834;28;20052;-91
2023/04/08 03:54:43;;;;;;;13.40;10.93;;;;;;;4.89;100.00;100852.38;5037939;28;20073;-91
2023/04/08 03:57:11;;;;;;;14.95;11.57;;;;;;;4.75;100.00;100836.88;5041827;28;20033;-92
2023/04/08 03:59:39;;;;;;;16.50;10.85;;;;;;;4.82;100.00;100853.38;5031590;28;20096;-93
2023/04/08 04:02:07;;;;;;;12.77;11.10;;;;;;;4.76;100.00;100850.84;5033900;28;20041;-91
2023/04/08 04:04:35;;;;;;;15.98;11.95;;;;;;;4.77;100.00;100861.31;5033790;28;20059;-92
2023/04/08 04:07:04;;;;;;;15.45;11.52;;;;;;;4.71;100.00;100855.31;5048559;28;20072;-91
2023/04/08 04:09:31;;;;;;;14.27;11.25;;;;;;;4.61;100.00;100841.47;5022145;28;20050;-91
2023/04/08 04:11:59;;;;;;;15.15;10.98;;;;;;;4.70;100.00;100858.84;5055689;28;20060;-92
2023/04/08 04:14:27;;;;;;;16.15;11.60;;;;;;;4.69;100.00;100868.47;5028505;28;20038;-91
2023/04/08 04:16:54;;;;;;;15.52;11.13;;;;;;;4.69;100.00;100872.84;5039760;28;20049;-90
2023/04/08 04:19:22;;;;;;;14.45;11.10;;;;;;;4.59;100.00;100857.22;5022552;28;20515;-92
2023/04/08 04:21:51;;;;;;;16.08;11.55;;;;;;;4.72;100.00;100873.63;5016748;28;20054;-91
2023/04/08 04:24:18;;;;;;;16.42;11.50;;;;;;;4.56;100.00;100853.81;5014255;28;20027;-91
2023/04/08 04:26:45;;;;;;;13.80;10.95;;;;;;;4.60;100.00;100860.72;5030671;28;20042;-91
2023/04/08 04:29:12;;;;;;;16.90;12.63;;;;;;;4.65;100.00;100871.16;5049824;28;20038;-91
2023/04/08 04:31:40;;;;;;;16.50;12.23;;;;;;;4.61;100.00;100866.81;5042771;28;20049;-91
2023/04/08 04:34:10;;;;;;;;;;;;;;;4.66;100.00;100870.25;5042042;28;20050;-91
2023/04/08 04:36:37;;;;;;;15.27;10.90;;;;;;;4.68;100.00;100876.34;5015305;28;19917;-91
2023/04/08 04:39:03;;;;;;;14.05;11.23;;;;;;;4.67;100.00;100877.25;5039512;28;20048;-92
2023/04/08 04:41:30;;;;;;;17.80;11.65;;;;;;;4.42;100.00;100843.50;5025396;28;20102;-91
2023/04/08 04:43:57;;;;;;;15.93;12.13;;;;;;;4.01;100.00;100783.81;5023913;28;20050;-92
2023/04/08 04:46:27;;;;;;;15.70;12.10;;;;;;;4.25;100.00;100834.16;5232875;23;21353;-90
2023/04/08 04:48:55;;;;;;;14.33;11.93;;;;;;;4.46;100.00;100876.66;5033434;28;20083;-90
2023/04/08 04:51:25;;;;;;;16.52;12.45;;;;;;;4.42;100.00;100876.72;5043461;28;20582;-91
2023/04/08 04:53:52;;;;;;;15.32;12.38;;;;;;;4.16;100.00;100851.75;5034976;28;20049;-91
2023/04/08 04:56:20;;;;;;;16.88;12.48;;;;;;;4.29;100.00;100883.88;5046699;28;20038;-90
2023/04/08 04:58:50;;;;;;;15.77;11.77;;;;;;;4.22;100.00;100872.63;5031663;28;20053;-90
2023/04/08 05:01:17;;;;;;;15.70;11.85;;;;;;;4.27;100.00;100888.28;5046862;28;20033;-92
2023/04/08 05:03:47;;;;;;;15.10;11.90;;;;;;;4.28;100.00;100876.03;5035006;28;20034;-91
2023/04/08 05:06:15;;;;;;;15.05;12.15;;;;;;;4.26;100.00;100880.44;5019208;28;20141;-91
2023/04/08 05:08:44;;;;;;;15.65;11.52;;;;;;;4.31;100.00;100896.97;5034389;28;20041;-92
2023/04/08 05:11:12;;;;;;;19.25;12.65;;;;;;;4.31;100.00;100897.84;5046882;23;20038;-91
2023/04/08 05:13:39;;;;;;;18.48;12.82;;;;;;;4.29;100.00;100894.38;5022048;28;20038;-90
2023/04/08 05:16:10;;;;;;;16.63;12.43;;;;;;;4.22;100.00;100890.97;5030108;28;20047;-91
2023/04/08 05:18:40;;;;;;;18.60;13.63;;;;;;;4.22;100.00;100897.97;5028375;28;20034;-92
2023/04/08 05:21:07;;;;;;;18.25;13.13;;;;;;;4.04;100.00;100878.13;5026099;28;20053;-93
2023/04/08 05:23:40;;;;;;;19.33;13.50;;;;;;;4.15;100.00;100896.31;5033723;28;20045;-92
2023/04/08 05:26:20;;;;;;;15.93;12.35;;;;;;;4.09;100.00;100897.25;5012863;28;20157;-91
2023/04/08 05:28:48;;;;;;;16.42;12.43;;;;;;;3.97;100.00;100875.56;4998599;28;20046;-90
2023/04/08 05:31:19;;;;;;;16.92;12.32;;;;;;;3.67;100.00;100829.66;5083864;23;20061;-92
2023/04/08 05:34:07;;;;;;;15.27;11.57;;;;;;;4.22;100.00;100916.34;5013218;28;20046;-89
2023/04/08 05:36:37;;;;;;;17.92;12.93;;;;;;;3.97;100.00;100870.34;4996153;28;20426;-91
2023/04/08 05:39:08;;;;;;;16.45;12.30;;;;;;;4.14;100.00;100891.94;5022604;28;20124;-91
2023/04/08 05:41:35;;;;;;;15.77;11.90;;;;;;;4.39;100.00;100910.88;5027924;28;20066;-92
2023/04/08 05:44:11;;;;;;;18.52;12.68;;;;;;;4.22;100.00;100870.00;5018505;28;20062;-92
2023/04/08 05:46:37;;;;;;;15.90;12.90;;;;;;;4.37;100.00;100902.16;4993945;28;20050;-90
2023/04/08 05:49:04;;;;;;;17.13;13.20;;;;;;;4.52;100.00;100915.91;5009972;28;20070;-91
2023/04/08 05:51:32;;;;;;;16.55;12.73;;;;;;;4.56;100.00;100914.13;5014031;28;20052;-91
2023/04/08 05:53:58;;;;;;;16.90;12.07;;;;;;;4.60;100.00;100910.56;5001103;28;20057;-90
2023/04/08 05:56:27;;;;;;;17.58;12.73;;;;;;;4.69;100.00;100912.19;5033293;28;20052;-91
2023/04/08 05:59:00;;;;;;;17.50;12.68;;;;;;;4.78;100.00;100922.53;5025398;28;20084;-90
2023/04/08 06:01:33;;;;;;;17.63;13.00;;;;;;;4.84;100.00;100925.94;5007565;28;20458;-91
2023/04/08 06:04:07;;;;;;;17.17;13.13;;;;;;;4.93;100.00;100935.41;5008432;28;20100;-91
2023/04/08 06:06:38;;;;;;;17.33;12.93;;;;;;;4.62;100.00;100866.81;5016754;28;20033;-91
2023/04/08 06:09:20;;;;;;;18.63;12.88;;;;;;;5.18;100.00;100944.66;5009936;28;20030;-90
2023/04/08 06:11:49;;;;;;;17.05;12.38;;;;;;;5.29;100.00;100939.22;5030605;28;20041;-91
2023/04/08 06:14:21;;;;;;;17.38;12.77;;;;;;;5.15;100.00;100910.56;5015080;28;20105;-90
2023/04/08 06:16:48;;;;;;;17.48;12.85;;;;;;;5.34;100.00;100921.66;5023643;28;20076;-91
2023/04/08 06:19:18;;;;;;;16.58;12.48;;;;;;;5.52;100.00;100941.44;5025610;28;20092;-91
2023/04/08 06:21:50;;;;;;;19.60;12.88;;;;;;;5.72;100.00;100948.97;5013279;28;20086;-91
2023/04/08 06:24:18;;;;;;;15.70;11.52;;;;;;;5.47;100.00;100889.00;5026612;28;20048;-93
2023/04/08 06:26:46;;;;;;;15.63;11.60;;;;;;;5.40;100.00;100853.22;5007628;28;20097;-92
2023/04/08 06:29:17;;;;;;;17.33;12.25;;;;;;;5.96;100.00;100938.91;5022989;28;20042;-92
2023/04/08 06:31:44;;;;;;;17.48;11.77;;;;;;;6.02;100.00;100961.56;4999607;28;20405;-92
2023/04/08 06:34:11;;;;;;;15.82;12.07;;;;;;;5.71;100.00;100895.56;5000830;28;20471;-91
2023/04/08 06:36:38;;;;;;;15.35;12.00;;;;;;;6.07;100.00;100950.97;5058909;23;20054;-92
2023/04/08 06:41:40;;;;;;;15.70;12.43;;;;;;;6.02;100.00;100918.63;5012026;28;20049;-92
2023/04/08 06:44:11;;;;;;;15.98;12.07;;;;;;;6.35;100.00;100965.28;5019403;28;20050;-90
2023/04/08 06:46:38;;;;;;;15.73;12.23;;;;;;;6.19;100.00;100927.91;5006053;28;20075;-89
2023/04/08 06:49:05;;;;;;;16.38;13.13;;;;;;;6.35;100.00;100949.50;5037731;28;20072;-92
2023/04/08 06:51:32;;;;;;;15.70;12.55;;;;;;;6.53;100.00;100974.56;5011735;28;20038;-92
2023/04/08 06:54:02;;;;;;;16.38;12.52;;;;;;;6.28;100.00;100929.50;5017598;28;20137;-92
2023/04/08 06:56:31;;;;;;;15.35;12.27;;;;;;;6.65;100.00;100985.69;5008222;28;20063;-90
2023/04/08 06:58:58;;;;;;;14.50;11.32;;;;;;;6.59;100.00;100969.19;5014181;28;20044;-91
2023/04/08 07:01:27;;;;;;;15.63;12.00;;;;;;;6.49;100.00;100959.75;5131948;22;20054;-92
2023/04/08 07:03:57;;;;;;;15.68;11.48;;;;;;;6.66;100.00;100991.81;5012057;28;20046;-91
2023/04/08 07:06:29;;;;;;;16.77;11.60;;;;;;;6.60;100.00;100979.69;5012794;28;20042;-92
2023/04/08 07:09:06;;;;;;;14.90;11.85;;;;;;;6.81;100.00;100988.88;4996810;28;20082;-92
2023/04/08 07:11:35;;;;;;;;;;;;;;;6.96;100.00;100987.66;4986513;28;20498;-91
2023/04/08 07:14:02;;;;;;;14.50;11.75;;;;;;;7.14;100.00;100999.53;5022982;28;19952;-91
2023/04/08 07:16:29;;;;;;;15.57;11.63;;;;;;;7.30;100.00;100993.00;5005376;28;20066;-91
2023/04/08 07:18:56;;;;;;;17.63;12.07;;;;;;;7.29;100.00;100978.97;4996242;28;20043;-92
2023/04/08 07:21:25;;;;;;;18.38;13.48;;;;;;;7.54;100.00;101005.59;5021745;28;20053;-92
2023/04/08 07:23:52;;;;;;;16.67;11.95;;;;;;;7.67;100.00;100992.97;5012054;28;20042;-90
2023/04/08 07:26:21;;;;;;;14.98;11.73;;;;;;;7.84;100.00;100998.69;5016919;28;20046;-93
2023/04/08 07:28:48;;;;;;;15.48;11.73;;;;;;;7.85;100.00;100965.25;5020656;28;20073;-91
2023/04/08 07:31:17;;;;;;;15.10;12.23;;;;;;;8.23;100.00;100996.72;5013373;28;20038;-92
2023/04/08 07:33:45;;;;;;;15.23;11.30;;;;;;;8.41;100.00;101003.28;5009214;28;20114;-91
2023/04/08 07:36:13;;;;;;;15.57;11.98;;;;;;;8.55;100.00;100998.47;4984370;28;20427;-91
2023/04/08 07:38:42;;;;;;;16.02;11.98;;;;;;;8.72;100.00;100996.22;5007539;28;20050;-91
2023/04/08 07:41:11;;;;;;;14.43;11.45;;;;;;;8.83;100.00;101005.56;5004890;28;20050;-92
2023/04/08 07:43:38;;;;;;;15.35;10.73;;;;;;;8.93;100.00;101007.06;4997708;28;20102;-93
2023/04/08 07:46:06;;;;;;;15.85;10.43;;;;;;;8.99;100.00;100991.00;5003770;28;20053;-92
2023/04/08 07:48:34;;;;;;;14.98;10.50;;;;;;;8.98;100.00;101005.09;4996634;28;20053;-92
2023/04/08 07:51:16;;;;;;;13.70;10.65;;;;;;;8.87;100.00;100991.38;4999182;28;20050;-91
2023/04/08 07:53:46;;;;;;;12.85;10.50;;;;;;;8.92;100.00;101013.25;5014376;28;20210;-91
2023/04/08 07:56:14;;;;;;;13.73;10.50;;;;;;;8.71;100.00;100997.13;4999484;28;20051;-91
2023/04/08 07:58:43;;;;;;;14.63;11.32;;;;;;;8.74;100.00;101014.66;5006028;28;20042;-91
2023/04/08 08:01:26;;;;;;;13.50;10.68;;;;;;;8.67;100.00;101011.31;4974809;28;20057;-90
2023/04/08 08:04:00;;;;;;;13.95;10.73;;;;;;;8.67;100.00;101019.22;5004306;28;20029;-89
2023/04/08 08:06:35;;;;;;;15.65;10.85;;;;;;;8.61;100.00;101016.78;4997596;28;20042;-91
2023/04/08 08:09:04;;;;;;;14.50;10.77;;;;;;;8.62;100.00;101018.53;5106904;23;20057;-90
2023/04/08 08:11:36;;;;;;;14.48;10.98;;;;;;;8.73;100.00;101021.72;5019385;28;20041;-91
2023/04/08 08:14:05;;;;;;;13.95;11.15;;;;;;;8.85;100.00;101046.00;4996238;28;20051;-93
2023/04/08 08:16:32;;;;;;;12.98;10.23;;;;;;;8.78;100.00;101040.06;4993078;28;20054;-91
2023/04/08 08:19:14;;;;;;;12.73;10.82;;;;;;;8.71;100.00;101049.94;4996547;28;20056;-91
2023/04/08 08:21:42;;;;;;;14.77;10.60;;;;;;;8.69;100.00;101043.81;4981167;28;20133;-92
2023/04/08 08:24:09;;;;;;;16.10;10.80;;;;;;;8.70;100.00;101048.19;4989182;28;20053;-91
2023/04/08 08:26:39;;;;;;;14.25;11.18;;;;;;;8.62;100.00;101049.34;5004474;28;20066;-92
2023/04/08 08:32:08;;;;;;;13.32;10.57;;;;;;;8.57;100.00;101060.03;4949019;29;20066;-90
2023/04/08 08:34:53;;;;;;;13.80;11.25;;;;;;;8.51;100.00;101062.81;4929447;29;20051;-91
2023/04/08 08:37:55;;;;;;;13.25;10.48;;;;;;;7.91;100.00;100965.94;4936107;29;20035;-92
2023/04/08 08:40:33;;;;;;;14.23;11.57;;;;;;;8.04;100.00;101020.09;4962612;28;20059;-91
2023/04/08 08:43:38;;;;;;;14.02;11.38;;;;;;;8.29;100.00;101067.81;4912707;29;20044;-92
2023/04/08 08:46:11;;;;;;;15.40;11.82;;;;;;;7.77;100.00;100990.94;4943656;29;20057;-92
2023/04/08 08:48:52;;;;;;;14.88;11.25;;;;;;;8.05;100.00;101053.47;5054359;23;20108;-90
2023/04/08 08:51:28;;;;;;;15.85;11.70;;;;;;;7.58;100.00;100977.38;5274109;23;20057;-89
2023/04/08 08:53:56;;;;;;;13.13;11.55;;;;;;;7.98;100.00;101057.19;5006694;28;20050;-90
2023/04/08 08:56:23;;;;;;;16.00;11.32;;;;;;;8.06;100.00;101081.59;5001112;28;20041;-91
2023/04/08 08:58:50;;;;;;;15.02;11.30;;;;;;;8.07;100.00;101091.22;5015230;28;20411;-91
2023/04/08 09:02:19;;;;;;;14.88;11.32;;;;;;;7.95;100.00;101074.84;5010050;28;20056;-89
2023/04/08 09:05:10;;;;;;;16.60;11.68;;;;;;;7.93;100.00;101037.97;5029067;28;20060;-91
2023/04/08 09:07:46;;;;;;;15.82;11.52;;;;;;;8.19;100.00;101052.25;5005523;28;20056;-92
2023/04/08 09:10:13;;;;;;;15.83;11.50;;;;;;;8.57;100.00;101096.09;5012795;28;20049;-90
2023/04/08 09:12:57;;;;;;;15.63;11.70;;;;;;;8.33;100.00;101042.25;5012175;28;20121;-90
2023/04/08 09:15:27;;;;;;;16.50;11.63;;;;;;;8.48;100.00;101054.16;5002287;28;20060;-91
2023/04/08 09:17:57;;;;;;;15.57;12.10;;;;;;;8.66;100.00;101078.22;5087945;23;21237;-90
2023/04/08 09:20:54;;;;;;;14.55;11.90;;;;;;;8.74;100.00;101073.59;4997010;28;20046;-92
2023/04/08 09:23:51;;;;;;;14.88;11.57;;;;;;;8.99;100.00;101091.38;5014132;28;20046;-92
2023/04/08 09:26:27;;;;;;;12.80;11.02;;;;;;;9.06;100.00;101083.25;5024596;28;20046;-92
2023/04/08 09:29:10;;;;;;;14.00;11.30;;;;;;;8.81;100.00;101015.34;4985413;28;20046;-91
2023/04/08 09:31:58;;;;;;;15.00;11.55;;;;;;;9.32;100.00;101084.22;5014452;28;20045;-91
2023/04/08 09:34:32;;;;;;;15.70;11.73;;;;;;;9.47;100.00;101100.47;5018508;28;20038;-89
2023/04/08 09:37:04;;;;;;;13.93;11.30;;;;;;;9.63;100.00;101089.41;5007888;28;20061;-90
2023/04/08 09:39:40;;;;;;;13.77;11.30;;;;;;;9.70;100.00;101099.75;5026398;28;20054;-90
2023/04/08 09:42:12;;;;;;;13.25;10.60;;;;;;;9.74;100.00;101101.38;5205863;23;20045;-91
2023/04/08 09:44:44;;;;;;;14.90;10.50;;;;;;;9.72;100.00;101099.72;5054030;28;20061;-90
2023/04/08 09:47:28;;;;;;;13.43;9.15;;;;;;;9.71;97.09;101076.81;5015696;28;20045;-92
2023/04/08 09:50:04;;;;;;;12.80;9.20;;;;;;;9.76;79.81;101080.16;5026301;28;20402;-90
2023/04/08 09:52:55;;;;;;;11.20;8.80;;;;;;;9.78;80.37;101068.59;5044811;28;20132;-91
2023/04/08 09:55:31;;;;;;;11.90;9.27;;;;;;;9.95;84.35;101077.78;5054422;28;20108;-92
2023/04/08 09:58:10;;;;;;;11.98;9.35;;;;;;;9.98;82.38;101054.72;5045600;28;20063;-91
2023/04/08 10:00:45;;;;;;;12.60;9.18;;;;;;;10.34;76.89;101084.41;5036655;28;20048;-92
2023/04/08 10:03:37;;;;;;;12.80;9.38;;;;;;;10.44;74.24;101091.09;5167592;23;20050;-90
2023/04/08 10:06:10;;;;;;;10.60;8.82;;;;;;;10.62;73.85;101081.63;5032275;28;20065;-90
2023/04/08 10:08:38;;;;;;;11.23;8.90;;;;;;;10.89;75.32;101098.28;5030020;28;20043;-91
2023/04/08 10:11:06;;;;;;;13.48;9.65;;;;;;;10.87;74.59;101084.22;5008663;28;20061;-92
2023/04/08 10:13:33;;;;;;;13.23;8.93;;;;;;;10.80;70.40;101053.59;5005024;28;20039;-91
2023/04/08 10:16:21;;;;;;;11.38;8.73;;;;;;;10.90;70.04;101074.38;5028383;28;20392;-92
2023/04/08 10:19:43;;;;;;;10.98;8.40;;;;;;;10.90;70.24;101090.28;5013303;28;20137;-92
2023/04/08 10:22:32;;;;;;;12.45;8.82;;;;;;;11.01;70.20;101091.69;5016064;28;20073;-91
2023/04/08 10:25:14;;;;;;;11.38;8.80;;;;;;;10.98;69.65;101086.50;5010716;28;20069;-91
2023/04/08 10:27:45;;;;;;;13.23;8.10;;;;;;;10.99;69.60;101091.75;5009267;28;20061;-93
2023/04/08 10:30:32;;;;;;;13.25;9.43;;;;;;;10.99;69.04;101086.44;5008517;28;20064;-92
2023/04/08 10:33:02;;;;;;;12.32;7.65;;;;;;;10.90;67.38;101084.97;5041074;28;20120;-91
2023/04/08 10:35:41;;;;;;;14.00;8.35;;;;;;;10.86;71.16;101072.75;5022848;28;20040;-90
2023/04/08 10:38:11;;;;;;;10.00;7.38;;;;;;;10.81;73.03;101034.13;5020737;28;20037;-90
2023/04/08 10:40:41;;;;;;;10.70;7.32;;;;;;;11.28;68.53;101080.00;5008338;28;20042;-90
2023/04/08 10:43:12;;;;;;;11.23;8.20;;;;;;;11.28;68.07;101064.09;5036382;28;20049;-90
2023/04/08 10:45:57;;;;;;;10.55;7.45;;;;;;;11.22;67.72;101065.19;5012441;28;20039;-91
2023/04/08 10:48:28;;;;;;;11.07;8.18;;;;;;;11.41;69.61;101085.69;5022074;28;20080;-91
2023/04/08 10:51:00;;;;;;;10.18;8.02;;;;;;;11.34;70.27;101047.94;5009016;28;20050;-91
2023/04/08 10:53:36;;;;;;;11.80;7.88;;;;;;;11.43;67.50;101031.69;5006585;28;20046;-93
2023/04/08 10:56:08;;;;;;;12.07;7.78;;;;;;;11.79;67.65;101084.19;5026909;28;20050;-92
2023/04/08 10:58:46;;;;;;;11.13;7.97;;;;;;;11.73;66.89;101077.31;5026876;28;20401;-91
2023/04/08 11:01:14;;;;;;;9.52;7.15;;;;;;;11.41;70.20;101014.09;5040301;28;20057;-89
2023/04/08 11:03:47;;;;;;;10.63;7.30;;;;;;;11.85;68.66;101073.31;5031499;28;20069;-91
2023/04/08 11:06:31;;;;;;;9.88;7.18;;;;;;;11.75;67.95;101069.28;5010714;28;20042;-91
2023/04/08 11:09:03;;;;;;;9.90;7.30;;;;;;;11.21;68.50;100983.94;5031092;28;20102;-90
2023/04/08 11:11:31;;;;;;;14.50;7.43;;;;;;;11.75;68.46;101074.59;5035193;28;20053;-91
2023/04/08 11:14:01;;;;;;;12.98;7.53;;;;;;;11.56;70.75;101040.84;5010110;28;20053;-91
2023/04/08 11:16:31;;;;;;;9.20;7.43;;;;;;;11.66;68.59;101037.81;4998912;28;20439;-91
2023/04/08 11:18:58;;;;;;;9.35;7.60;;;;;;;11.85;69.69;101052.09;5019570;28;20050;-91
2023/04/08 11:21:39;;;;;;;7.97;6.53;;;;;;;12.09;68.22;101064.34;5007151;28;20042;-91
2023/04/08 11:24:10;;;;;;;10.35;7.63;;;;;;;12.29;69.07;101072.28;5020674;28;20537;-91
2023/04/08 11:26:42;;;;;;;11.85;7.25;;;;;;;12.53;65.73;101038.50;5006972;28;20041;-92
2023/04/08 11:29:20;;;;;;;10.50;6.68;;;;;;;12.69;64.04;101059.91;4997600;28;20038;-90
2023/04/08 11:31:50;;;;;;;9.05;7.28;;;;;;;12.49;63.60;101038.69;5000617;28;20054;-93
2023/04/08 11:34:23;;;;;;;9.48;7.20;;;;;;;12.34;63.81;101037.56;5007692;28;20053;-92
2023/04/08 11:36:57;;;;;;;9.60;6.82;;;;;;;12.03;64.38;101023.91;4991103;28;20054;-93
2023/04/08 11:39:42;;;;;;;10.50;7.22;;;;;;;11.89;65.35;101038.63;4999514;28;20058;-91
2023/04/08 11:42:32;;;;;;;11.45;7.75;;;;;;;11.85;67.13;101073.31;5018153;28;20042;-92
2023/04/08 11:45:16;;;;;;;9.70;7.15;;;;;;;11.49;69.18;101063.25;5012452;28;20052;-91